createdAt,value
2023-01-18T00:01:43.581Z,33.30
2023-01-18T00:04:11.748Z,32.87
2023-01-18T00:06:41.348Z,33.13
2023-01-18T00:09:14.262Z,33.43
2023-01-18T00:11:42.526Z,33.43
2023-01-18T00:14:12.005Z,33.53
2023-01-18T00:16:40.699Z,32.33
2023-01-18T00:19:13.174Z,32.07
2023-01-18T00:21:43.105Z,31.27
2023-01-18T00:24:15.043Z,31.00
2023-01-18T00:26:44.639Z,31.17
2023-01-18T00:29:15.017Z,31.30
2023-01-18T00:31:43.766Z,31.23
2023-01-18T00:34:12.196Z,31.37
2023-01-18T00:36:41.698Z,31.40
2023-01-18T00:39:09.981Z,118.13
2023-01-18T00:41:58.722Z,38.67
2023-01-18T00:44:27.413Z,32.33
2023-01-18T00:46:57.066Z,31.73
2023-01-18T00:49:25.436Z,28.50
2023-01-18T00:51:56.785Z,29.77
2023-01-18T00:54:27.103Z,31.20
2023-01-18T00:56:55.398Z,30.27
2023-01-18T00:59:24.307Z,29.30
2023-01-18T01:01:54.741Z,30.83
2023-01-18T01:04:42.461Z,31.23
2023-01-18T01:07:11.478Z,29.43
2023-01-18T01:09:40.597Z,30.10
2023-01-18T01:12:27.072Z,30.60
2023-01-18T01:15:19.101Z,30.83
2023-01-18T01:18:06.107Z,31.80
2023-01-18T01:20:55.416Z,31.70
2023-01-18T01:23:42.838Z,31.90
2023-01-18T01:26:15.282Z,32.23
2023-01-18T01:28:46.585Z,32.83
2023-01-18T01:31:16.826Z,30.93
2023-01-18T01:33:49.070Z,31.67
2023-01-18T01:36:19.915Z,31.97
2023-01-18T01:38:49.388Z,32.30
2023-01-18T01:41:25.403Z,31.43
2023-01-18T01:43:55.864Z,33.30
2023-01-18T01:46:35.573Z,31.17
2023-01-18T01:49:10.588Z,46.80
2023-01-18T01:51:41.070Z,38.67
2023-01-18T01:54:14.778Z,32.63
2023-01-18T01:56:46.909Z,31.57
2023-01-18T01:59:16.412Z,31.67
2023-01-18T02:01:45.730Z,33.07
2023-01-18T02:04:15.577Z,30.67
2023-01-18T02:06:44.483Z,31.27
2023-01-18T02:09:16.750Z,30.53
2023-01-18T02:11:45.417Z,30.30
2023-01-18T02:14:16.784Z,31.27
2023-01-18T02:17:05.777Z,30.97
2023-01-18T02:19:58.614Z,29.97
2023-01-18T02:22:46.186Z,30.87
2023-01-18T02:25:39.512Z,30.37
2023-01-18T02:28:12.630Z,36.93
2023-01-18T02:30:45.899Z,32.23
2023-01-18T02:33:20.618Z,28.90
2023-01-18T02:35:55.369Z,28.80
2023-01-18T02:38:27.019Z,28.47
2023-01-18T02:41:12.643Z,28.17
2023-01-18T02:44:01.236Z,26.53
2023-01-18T02:46:34.098Z,25.50
2023-01-18T02:49:08.583Z,25.37
2023-01-18T02:51:37.606Z,24.97
2023-01-18T02:54:09.665Z,24.10
2023-01-18T02:56:47.583Z,23.40
2023-01-18T02:59:22.768Z,23.93
2023-01-18T03:01:57.655Z,24.40
2023-01-18T03:04:32.710Z,23.03
2023-01-18T03:07:10.036Z,22.50
2023-01-18T03:09:39.263Z,22.73
2023-01-18T03:12:15.256Z,22.90
2023-01-18T03:14:55.621Z,20.93
2023-01-18T03:17:32.198Z,21.33
2023-01-18T03:20:07.400Z,21.43
2023-01-18T03:22:56.617Z,21.10
2023-01-18T03:25:32.747Z,20.57
2023-01-18T03:28:22.343Z,20.70
2023-01-18T03:31:22.078Z,20.07
2023-01-18T03:33:55.441Z,20.07
2023-01-18T03:36:31.642Z,19.80
2023-01-18T03:39:03.449Z,19.70
2023-01-18T03:41:34.672Z,19.23
2023-01-18T03:44:12.912Z,20.00
2023-01-18T03:46:47.204Z,21.33
2023-01-18T03:49:17.447Z,21.03
2023-01-18T03:51:59.592Z,21.67
2023-01-18T03:54:35.426Z,21.47
2023-01-18T03:57:08.549Z,22.37
2023-01-18T03:59:40.661Z,21.57
2023-01-18T04:02:11.196Z,21.70
2023-01-18T04:04:39.619Z,21.40
2023-01-18T04:07:07.863Z,21.07
2023-01-18T04:09:36.634Z,23.07
2023-01-18T04:12:05.615Z,23.97
2023-01-18T04:14:35.079Z,24.57
2023-01-18T04:17:07.623Z,24.07
2023-01-18T04:19:37.492Z,25.13
2023-01-18T04:22:09.571Z,25.07
2023-01-18T04:24:41.676Z,24.20
2023-01-18T04:27:10.635Z,26.00
2023-01-18T04:29:38.992Z,24.80
2023-01-18T04:32:08.618Z,24.47
2023-01-18T04:34:38.425Z,24.63
2023-01-18T04:37:09.513Z,25.47
2023-01-18T04:39:38.767Z,23.90
2023-01-18T04:42:07.634Z,24.50
2023-01-18T04:44:35.912Z,24.80
2023-01-18T04:47:04.474Z,24.40
2023-01-18T04:49:34.039Z,24.60
2023-01-18T04:52:07.329Z,24.87
2023-01-18T04:54:35.664Z,24.47
2023-01-18T04:57:03.830Z,24.43
2023-01-18T04:59:32.104Z,25.73
2023-01-18T05:02:00.337Z,25.07
2023-01-18T05:04:28.481Z,26.87
2023-01-18T05:07:02.283Z,25.03
2023-01-18T05:09:32.496Z,23.93
2023-01-18T05:12:01.640Z,24.97
2023-01-18T05:14:30.681Z,25.00
2023-01-18T05:17:02.260Z,23.60
2023-01-18T05:19:30.682Z,23.90
2023-01-18T05:21:59.662Z,24.37
2023-01-18T05:24:29.890Z,23.67
2023-01-18T05:27:03.581Z,24.27
2023-01-18T05:29:31.931Z,25.73
2023-01-18T05:32:00.259Z,24.67
2023-01-18T05:34:28.715Z,23.97
2023-01-18T05:36:56.842Z,25.37
2023-01-18T05:39:25.510Z,23.90
2023-01-18T05:41:58.766Z,23.47
2023-01-18T05:44:30.694Z,23.70
2023-01-18T05:46:59.653Z,24.07
2023-01-18T05:49:29.468Z,23.20
2023-01-18T05:51:58.456Z,24.13
2023-01-18T05:54:26.651Z,23.23
2023-01-18T05:56:54.876Z,23.47
2023-01-18T05:59:23.145Z,24.17
2023-01-18T06:01:53.730Z,24.40
2023-01-18T06:04:25.546Z,24.23
2023-01-18T06:06:53.833Z,21.53
2023-01-18T06:09:22.364Z,19.30
2023-01-18T06:11:50.672Z,20.93
2023-01-18T06:14:18.777Z,20.87
2023-01-18T06:16:47.746Z,19.63
2023-01-18T06:19:21.150Z,19.57
2023-01-18T06:21:49.482Z,19.00
2023-01-18T06:24:17.613Z,18.87
2023-01-18T06:26:46.706Z,16.93
2023-01-18T06:29:14.919Z,16.90
2023-01-18T06:31:43.700Z,16.27
2023-01-18T06:34:16.778Z,15.93
2023-01-18T06:36:46.012Z,14.73
2023-01-18T06:39:14.310Z,14.93
2023-01-18T06:41:42.690Z,14.77
2023-01-18T06:44:10.992Z,14.07
2023-01-18T06:46:39.671Z,14.83
2023-01-18T06:49:09.520Z,13.70
2023-01-18T06:51:39.684Z,13.30
2023-01-18T06:54:09.508Z,13.83
2023-01-18T06:56:39.802Z,12.87
2023-01-18T06:59:11.334Z,13.20
2023-01-18T07:01:39.857Z,12.73
2023-01-18T07:04:08.182Z,12.33
2023-01-18T07:06:38.686Z,11.90
2023-01-18T07:09:12.290Z,12.00
2023-01-18T07:11:43.396Z,13.10
2023-01-18T07:14:12.713Z,12.83
2023-01-18T07:16:41.739Z,13.00
2023-01-18T07:19:13.156Z,13.07
2023-01-18T07:21:43.744Z,12.33
2023-01-18T07:24:11.883Z,11.63
2023-01-18T07:26:40.159Z,11.63
2023-01-18T07:29:09.232Z,11.50
2023-01-18T07:31:38.317Z,10.67
2023-01-18T07:34:06.718Z,10.63
2023-01-18T07:36:35.223Z,11.03
2023-01-18T07:39:06.515Z,9.80
2023-01-18T07:41:35.715Z,9.03
2023-01-18T07:44:04.565Z,9.80
2023-01-18T07:46:33.368Z,10.80
2023-01-18T07:49:05.856Z,11.37
2023-01-18T07:51:35.126Z,8.90
2023-01-18T07:54:04.786Z,9.40
2023-01-18T07:56:33.028Z,12.37
2023-01-18T07:59:05.889Z,9.77
2023-01-18T08:01:34.753Z,9.47
2023-01-18T08:04:03.551Z,8.70
2023-01-18T08:06:31.852Z,9.43
2023-01-18T08:08:59.952Z,8.90
2023-01-18T08:11:33.572Z,9.23
2023-01-18T08:14:02.145Z,9.10
2023-01-18T08:16:30.453Z,8.90
2023-01-18T08:18:58.567Z,8.27
2023-01-18T08:21:27.704Z,8.60
2023-01-18T08:24:00.278Z,9.73
2023-01-18T08:26:29.989Z,13.77
2023-01-18T08:28:59.727Z,16.07
2023-01-18T08:31:28.781Z,18.87
2023-01-18T08:33:56.985Z,13.50
2023-01-18T08:36:29.852Z,11.30
2023-01-18T08:38:58.671Z,9.17
2023-01-18T08:41:30.564Z,8.07
2023-01-18T08:44:00.020Z,7.80
2023-01-18T08:46:30.091Z,8.50
2023-01-18T08:49:00.136Z,7.60
2023-01-18T08:51:28.383Z,7.60
2023-01-18T08:53:57.406Z,8.10
2023-01-18T08:56:26.608Z,6.73
2023-01-18T08:58:56.297Z,6.50
2023-01-18T09:01:26.215Z,6.77
2023-01-18T09:03:56.101Z,6.70
2023-01-18T09:06:24.493Z,6.17
2023-01-18T09:08:53.124Z,5.90
2023-01-18T09:11:21.590Z,5.60
2023-01-18T09:14:00.257Z,5.57
2023-01-18T09:16:32.823Z,5.50
2023-01-18T09:19:06.212Z,5.33
2023-01-18T09:21:34.558Z,11.07
2023-01-18T09:24:03.745Z,8.90
2023-01-18T09:26:35.549Z,5.90
2023-01-18T09:29:04.382Z,6.07
2023-01-18T09:31:34.804Z,5.53
2023-01-18T09:34:18.541Z,5.50
2023-01-18T09:36:52.243Z,5.10
2023-01-18T09:39:21.568Z,4.97
2023-01-18T09:41:59.581Z,5.90
2023-01-18T09:44:31.700Z,4.73
2023-01-18T09:47:05.810Z,5.30
2023-01-18T09:49:41.994Z,5.40
2023-01-18T09:52:24.759Z,5.33
2023-01-18T09:55:00.812Z,4.90
2023-01-18T09:57:41.322Z,4.77
2023-01-18T10:00:20.760Z,5.17
2023-01-18T10:02:55.379Z,4.67
2023-01-18T10:05:27.535Z,4.80
2023-01-18T10:08:08.581Z,5.13
2023-01-18T10:10:40.500Z,4.80
2023-01-18T10:13:25.739Z,4.20
2023-01-18T10:15:57.496Z,4.80
2023-01-18T10:18:27.586Z,4.83
2023-01-18T10:21:01.779Z,4.77
2023-01-18T10:23:36.599Z,4.60
2023-01-18T10:26:10.729Z,4.60
2023-01-18T10:28:47.765Z,4.33
2023-01-18T10:31:36.230Z,5.80
2023-01-18T10:34:17.381Z,4.50
2023-01-18T10:36:49.817Z,4.23
2023-01-18T10:39:31.174Z,4.43
2023-01-18T10:42:06.506Z,4.37
2023-01-18T10:44:35.769Z,4.50
2023-01-18T10:47:04.033Z,4.50
2023-01-18T10:49:40.764Z,5.13
2023-01-18T10:52:20.266Z,5.43
2023-01-18T10:54:55.843Z,5.67
2023-01-18T10:57:27.747Z,4.13
2023-01-18T10:59:59.561Z,4.63
2023-01-18T11:02:35.330Z,4.37
2023-01-18T11:05:22.838Z,4.50
2023-01-18T11:08:12.809Z,4.50
2023-01-18T11:10:44.828Z,4.97
2023-01-18T11:13:28.810Z,22.83
2023-01-18T11:16:15.768Z,5.17
2023-01-18T11:18:58.615Z,4.40
2023-01-18T11:21:33.235Z,4.70
2023-01-18T11:24:09.580Z,4.90
2023-01-18T11:26:59.047Z,4.80
2023-01-18T11:29:33.590Z,4.17
2023-01-18T11:32:08.417Z,4.23
2023-01-18T11:34:41.128Z,4.57
2023-01-18T11:37:30.789Z,4.80
2023-01-18T11:40:00.423Z,4.50
2023-01-18T11:42:32.670Z,4.93
2023-01-18T11:45:22.522Z,5.00
2023-01-18T11:48:06.546Z,5.17
2023-01-18T11:50:41.018Z,7.57
2023-01-18T11:53:22.847Z,8.33
2023-01-18T11:55:56.283Z,8.80
2023-01-18T11:58:28.356Z,8.47
2023-01-18T12:01:14.827Z,5.93
2023-01-18T12:04:00.017Z,6.30
2023-01-18T12:06:41.493Z,5.50
2023-01-18T12:09:25.801Z,5.43
2023-01-18T12:12:18.645Z,5.60
2023-01-18T12:15:11.209Z,4.83
2023-01-18T12:18:12.327Z,4.33
2023-01-18T12:20:53.771Z,3.57
2023-01-18T12:23:40.810Z,4.10
2023-01-18T12:26:25.825Z,4.37
2023-01-18T12:29:11.635Z,3.77
2023-01-18T12:31:54.815Z,3.57
2023-01-18T12:34:28.428Z,3.70
2023-01-18T12:37:14.393Z,3.70
2023-01-18T12:39:57.633Z,3.53
2023-01-18T12:42:36.789Z,3.53
2023-01-18T12:45:19.705Z,3.30
2023-01-18T12:47:55.839Z,3.70
2023-01-18T12:50:30.457Z,3.33
2023-01-18T12:53:01.647Z,4.50
2023-01-18T12:55:36.271Z,6.60
2023-01-18T12:58:07.352Z,6.60
2023-01-18T13:00:42.477Z,5.40
2023-01-18T13:03:13.222Z,4.20
2023-01-18T13:05:52.632Z,3.50
2023-01-18T13:08:32.269Z,3.83
2023-01-18T13:11:07.573Z,3.60
2023-01-18T13:13:40.537Z,4.00
2023-01-18T13:16:21.808Z,3.50
2023-01-18T13:18:58.018Z,3.77
2023-01-18T13:21:45.857Z,3.47
2023-01-18T13:24:25.343Z,3.67
2023-01-18T13:26:54.038Z,3.73
2023-01-18T13:29:29.878Z,4.00
2023-01-18T13:31:59.033Z,3.63
2023-01-18T13:34:33.821Z,3.53
2023-01-18T13:37:14.595Z,3.53
2023-01-18T13:39:51.334Z,3.70
2023-01-18T13:42:33.976Z,3.90
2023-01-18T13:45:19.199Z,8.77
2023-01-18T13:48:08.534Z,6.13
2023-01-18T13:50:42.314Z,3.70
2023-01-18T13:53:31.761Z,4.33
2023-01-18T13:56:28.402Z,3.90
2023-01-18T13:59:00.359Z,3.73
2023-01-18T14:01:35.692Z,4.40
2023-01-18T14:04:27.324Z,4.13
2023-01-18T14:07:00.680Z,4.50
2023-01-18T14:09:39.846Z,4.40
2023-01-18T14:12:08.873Z,4.40
2023-01-18T14:14:54.246Z,3.43
2023-01-18T14:17:28.566Z,4.00
2023-01-18T14:20:33.781Z,4.47
2023-01-18T14:23:24.377Z,5.07
2023-01-18T14:26:00.818Z,4.83
2023-01-18T14:28:36.585Z,5.07
2023-01-18T14:31:06.845Z,4.70
2023-01-18T14:33:38.679Z,4.23
2023-01-18T14:36:08.652Z,4.63
2023-01-18T14:38:38.703Z,5.03
2023-01-18T14:41:12.935Z,6.30
2023-01-18T14:43:45.697Z,9.80
2023-01-18T14:46:19.679Z,8.97
2023-01-18T14:48:51.753Z,10.87
2023-01-18T14:51:23.322Z,9.57
2023-01-18T14:53:58.657Z,10.20
2023-01-18T14:56:29.135Z,12.27
2023-01-18T14:58:59.677Z,10.60
2023-01-18T15:01:32.057Z,10.67
2023-01-18T15:04:03.248Z,10.50
2023-01-18T15:06:38.793Z,7.30
2023-01-18T15:09:09.140Z,5.40
2023-01-18T15:11:39.537Z,5.87
2023-01-18T15:14:13.709Z,6.30
2023-01-18T15:16:42.049Z,5.83
2023-01-18T15:19:18.344Z,6.30
2023-01-18T15:21:47.928Z,6.10
2023-01-18T15:24:19.717Z,6.43
2023-01-18T15:26:52.328Z,5.97
2023-01-18T15:29:26.307Z,6.03
2023-01-18T15:31:57.858Z,6.50
2023-01-18T15:34:32.112Z,7.20
2023-01-18T15:37:02.447Z,6.50
2023-01-18T15:39:32.425Z,6.10
2023-01-18T15:42:07.736Z,5.97
2023-01-18T15:44:45.565Z,6.93
2023-01-18T15:47:22.845Z,6.40
2023-01-18T15:49:55.926Z,7.13
2023-01-18T15:52:38.907Z,7.40
2023-01-18T15:55:14.337Z,6.17
2023-01-18T15:57:43.188Z,6.70
2023-01-18T16:00:27.780Z,7.13
2023-01-18T16:02:56.935Z,6.57
2023-01-18T16:05:30.433Z,6.97
2023-01-18T16:08:18.860Z,7.47
2023-01-18T16:10:52.601Z,7.40
2023-01-18T16:13:42.716Z,7.97
2023-01-18T16:16:21.559Z,8.00
2023-01-18T16:18:53.717Z,8.80
2023-01-18T16:21:32.781Z,8.90
2023-01-18T16:24:01.230Z,9.10
2023-01-18T16:26:33.592Z,10.30
2023-01-18T16:29:09.283Z,9.83
2023-01-18T16:31:41.963Z,9.73
2023-01-18T16:34:20.767Z,10.20
2023-01-18T16:36:51.480Z,9.30
2023-01-18T16:39:19.859Z,10.40
2023-01-18T16:41:56.282Z,9.93
2023-01-18T16:44:27.043Z,8.87
2023-01-18T16:46:55.387Z,10.27
2023-01-18T16:49:23.864Z,10.10
2023-01-18T16:51:53.863Z,9.37
2023-01-18T16:54:24.441Z,10.07
2023-01-18T16:56:52.897Z,9.07
2023-01-18T16:59:22.916Z,9.97
2023-01-18T17:01:51.710Z,10.90
2023-01-18T17:04:19.894Z,10.80
2023-01-18T17:06:48.256Z,11.23
2023-01-18T17:09:23.754Z,12.17
2023-01-18T17:11:52.902Z,12.27
2023-01-18T17:14:25.357Z,13.00
2023-01-18T17:16:54.551Z,13.63
2023-01-18T17:19:25.735Z,13.83
2023-01-18T17:21:54.199Z,14.90
2023-01-18T17:24:28.309Z,15.30
2023-01-18T17:26:56.611Z,16.27
2023-01-18T17:29:24.758Z,15.97
2023-01-18T17:31:53.901Z,16.40
2023-01-18T17:34:27.977Z,16.67
2023-01-18T17:36:57.771Z,17.63
2023-01-18T17:39:42.564Z,17.40
2023-01-18T17:42:29.720Z,19.17
2023-01-18T17:45:04.751Z,16.30
2023-01-18T17:47:35.494Z,16.43
2023-01-18T17:50:09.728Z,14.93
2023-01-18T17:52:38.895Z,17.80
2023-01-18T17:55:12.686Z,19.83
2023-01-18T17:57:43.557Z,17.33
2023-01-18T18:00:14.794Z,19.23
2023-01-18T18:02:43.460Z,19.83
2023-01-18T18:05:11.781Z,20.77
2023-01-18T18:07:39.900Z,20.83
2023-01-18T18:10:13.875Z,21.43
2023-01-18T18:12:42.008Z,20.60
2023-01-18T18:15:10.481Z,20.30
2023-01-18T18:17:38.688Z,21.27
2023-01-18T18:20:12.520Z,20.87
2023-01-18T18:22:41.319Z,21.03
2023-01-18T18:25:10.935Z,21.33
2023-01-18T18:27:47.804Z,22.97
2023-01-18T18:30:18.589Z,21.43
2023-01-18T18:32:46.741Z,21.17
2023-01-18T18:35:25.070Z,19.23
2023-01-18T18:37:55.636Z,21.80
2023-01-18T18:40:24.339Z,22.77
2023-01-18T18:43:02.072Z,22.70
2023-01-18T18:45:32.477Z,21.57
2023-01-18T18:48:04.303Z,23.57
2023-01-18T18:50:32.761Z,22.30
2023-01-18T18:53:01.378Z,23.73
2023-01-18T18:55:29.755Z,24.20
2023-01-18T18:57:59.246Z,23.33
2023-01-18T19:00:27.851Z,23.00
2023-01-18T19:03:00.464Z,22.07
2023-01-18T19:05:30.344Z,23.47
2023-01-18T19:07:58.981Z,23.00
2023-01-18T19:10:30.366Z,24.47
2023-01-18T19:13:02.729Z,24.77
2023-01-18T19:15:31.143Z,25.97
2023-01-18T19:17:59.277Z,25.40
2023-01-18T19:20:27.631Z,26.60
2023-01-18T19:22:55.917Z,26.07
2023-01-18T19:25:24.975Z,26.83
2023-01-18T19:27:53.517Z,27.33
2023-01-18T19:30:23.079Z,26.80
2023-01-18T19:32:52.211Z,28.40
2023-01-18T19:35:21.875Z,29.00
2023-01-18T19:37:50.258Z,29.53
2023-01-18T19:40:21.575Z,31.27
2023-01-18T19:42:54.936Z,31.80
2023-01-18T19:45:28.156Z,32.10
2023-01-18T19:47:59.628Z,32.77
2023-01-18T19:50:29.494Z,32.30
2023-01-18T19:52:58.362Z,33.33
2023-01-18T19:55:26.874Z,31.97
2023-01-18T19:58:01.690Z,33.00
2023-01-18T20:00:31.426Z,28.67
2023-01-18T20:03:00.567Z,33.00
2023-01-18T20:05:29.938Z,32.53
2023-01-18T20:07:58.186Z,33.53
2023-01-18T20:10:27.087Z,33.40
2023-01-18T20:12:56.016Z,34.50
2023-01-18T20:15:24.460Z,30.23
2023-01-18T20:17:54.034Z,32.30
2023-01-18T20:20:31.748Z,30.50
2023-01-18T20:23:01.378Z,29.70
2023-01-18T20:25:29.965Z,29.90
2023-01-18T20:27:58.117Z,24.03
2023-01-18T20:30:29.961Z,28.70
2023-01-18T20:32:59.908Z,28.33
2023-01-18T20:35:28.997Z,29.87
2023-01-18T20:37:57.149Z,30.93
2023-01-18T20:40:25.947Z,30.37
2023-01-18T20:42:58.314Z,29.07
2023-01-18T20:45:27.694Z,28.57
2023-01-18T20:47:56.820Z,28.03
2023-01-18T20:50:26.957Z,29.23
2023-01-18T20:52:55.485Z,29.83
2023-01-18T20:55:25.266Z,25.53
2023-01-18T20:57:55.244Z,26.90
2023-01-18T21:00:24.353Z,26.37
2023-01-18T21:02:53.011Z,24.63
2023-01-18T21:05:21.674Z,26.17
2023-01-18T21:07:51.850Z,26.57
2023-01-18T21:10:38.420Z,25.03
2023-01-18T21:13:07.985Z,25.73
2023-01-18T21:15:36.955Z,26.47
2023-01-18T21:18:07.213Z,26.90
2023-01-18T21:20:39.603Z,26.33
2023-01-18T21:23:09.733Z,27.97
2023-01-18T21:25:38.985Z,28.03
2023-01-18T21:28:08.001Z,27.37
2023-01-18T21:30:36.636Z,27.23
2023-01-18T21:33:07.596Z,26.80
2023-01-18T21:35:35.957Z,27.63
2023-01-18T21:38:05.955Z,27.47
2023-01-18T21:40:35.491Z,27.27
2023-01-18T21:43:21.887Z,27.67
2023-01-18T21:45:56.375Z,25.87
2023-01-18T21:48:25.826Z,26.23
2023-01-18T21:51:15.168Z,26.13
2023-01-18T21:54:01.818Z,27.33
2023-01-18T21:56:35.840Z,24.53
2023-01-18T21:59:04.989Z,24.00
2023-01-18T22:01:37.760Z,24.77
2023-01-18T22:04:28.666Z,25.90
2023-01-18T22:06:59.424Z,25.17
2023-01-18T22:09:33.121Z,25.40
2023-01-18T22:12:02.816Z,24.07
2023-01-18T22:14:31.063Z,24.57
2023-01-18T22:16:59.404Z,24.07
2023-01-18T22:19:27.994Z,24.50
2023-01-18T22:21:58.977Z,23.77
2023-01-18T22:24:27.143Z,23.70
2023-01-18T22:26:55.388Z,24.50
2023-01-18T22:29:24.888Z,25.27
2023-01-18T22:31:56.087Z,26.37
2023-01-18T22:34:26.888Z,25.50
2023-01-18T22:36:55.180Z,24.23
2023-01-18T22:39:23.822Z,26.83
2023-01-18T22:41:52.975Z,27.00
2023-01-18T22:44:21.644Z,26.07
2023-01-18T22:46:51.292Z,29.17
2023-01-18T22:49:19.627Z,29.23
2023-01-18T22:51:49.059Z,28.53
2023-01-18T22:54:19.346Z,27.53
2023-01-18T22:56:47.882Z,28.27
2023-01-18T22:59:17.003Z,27.37
2023-01-18T23:01:46.020Z,26.50
2023-01-18T23:04:15.487Z,27.27
2023-01-18T23:06:45.761Z,27.77
2023-01-18T23:09:15.590Z,25.57
2023-01-18T23:11:44.743Z,25.73
2023-01-18T23:14:32.137Z,25.63
2023-01-18T23:17:17.862Z,26.57
2023-01-18T23:19:47.846Z,25.87
2023-01-18T23:22:16.979Z,26.60
2023-01-18T23:24:49.299Z,26.47
2023-01-18T23:27:18.011Z,27.70
2023-01-18T23:29:51.571Z,27.00
2023-01-18T23:32:26.764Z,28.03
2023-01-18T23:34:56.987Z,27.80
2023-01-18T23:37:26.870Z,27.67
2023-01-18T23:40:17.117Z,28.10
2023-01-18T23:43:03.584Z,27.57
2023-01-18T23:45:53.984Z,27.27
2023-01-18T23:48:39.366Z,28.43
2023-01-18T23:51:27.995Z,27.87
2023-01-18T23:54:16.050Z,28.63
2023-01-18T23:56:45.006Z,28.23
2023-01-18T23:59:13.849Z,28.40
